Time;durP1;ratioP1;P1;durP2;ratioP2;P2;SDS_P1;SDS_P2;PMS_P1;PMS_P2;Temp;Humidity;BMP_temperature;BMP_pressure;BME280_temperature;BME280_humidity;BME280_pressure;Samples;Min_cycle;Max_cycle;Signal;HPM_P1;HPM_P2
2023/11/25 00:01:20;;;;;;;;;;;;;;;-0.33;75.40;94701.34;5062146;28;19925;-67
2023/11/25 00:03:45;;;;;;;;;;;;;;;-0.39;75.26;94709.72;5066001;28;20798;-66
2023/11/25 00:06:11;;;;;;;;;;;;;;;-0.45;72.60;94706.69;5065082;28;19928;-67
2023/11/25 00:08:36;;;;;;;;;;;;;;;-0.49;75.01;94707.06;5062684;28;20063;-67
2023/11/25 00:11:01;;;;;;;;;;;;;;;-0.24;70.74;94713.63;5062228;28;19986;-67
2023/11/25 00:13:26;;;;;;;;;;;;;;;-0.32;69.39;94709.06;5065891;28;20568;-67
2023/11/25 00:15:52;;;;;;;;;;;;;;;-0.33;66.98;94710.00;5065434;28;19924;-67
2023/11/25 00:18:17;;;;;;;;;;;;;;;-0.36;69.33;94717.31;5061906;28;19942;-67
2023/11/25 00:20:43;;;;;;;;;;;;;;;-0.62;69.44;94722.97;5058429;28;19927;-66
2023/11/25 00:23:08;;;;;;;;;;;;;;;-0.68;72.87;94723.50;5069954;28;20492;-66
2023/11/25 00:25:33;;;;;;;;;;;;;;;-0.65;70.21;94725.88;5063873;28;19931;-66
2023/11/25 00:27:59;;;;;;;;;;;;;;;-0.56;70.30;94738.16;5070695;28;19920;-66
2023/11/25 00:30:24;;;;;;;;;;;;;;;-0.65;71.38;94739.75;5066387;28;20367;-66
2023/11/25 00:32:50;;;;;;;;;;;;;;;-0.80;68.96;94752.34;5069683;28;19964;-66
2023/11/25 00:35:15;;;;;;;;;;;;;;;-0.77;72.28;94752.09;5060849;28;19948;-66
2023/11/25 00:37:42;;;;;;;;;;;;;;;-0.87;71.88;94754.63;5057958;28;19920;-66
2023/11/25 00:40:11;;;;;;;;;;;;;;;-0.41;64.47;94764.78;5059239;28;19969;-66
2023/11/25 00:42:36;;;;;;;;;;;;;;;-0.39;65.17;94751.56;5057285;28;20515;-66
2023/11/25 00:45:02;;;;;;;;;;;;;;;-0.92;66.04;94769.03;5057748;28;19956;-66
2023/11/25 00:47:27;;;;;;;;;;;;;;;-1.18;72.89;94764.13;5066199;28;19920;-66
2023/11/25 00:49:53;;;;;;;;;;;;;;;-1.19;73.15;94775.56;5065205;28;19924;-66
2023/11/25 00:52:18;;;;;;;;;;;;;;;-1.00;69.24;94767.84;5068421;28;20015;-66
2023/11/25 00:54:44;;;;;;;;;;;;;;;-1.06;69.09;94775.38;5060474;28;19928;-66
2023/11/25 00:57:09;;;;;;;;;;;;;;;-1.01;63.44;94784.50;5059852;28;19971;-66
2023/11/25 00:59:34;;;;;;;;;;;;;;;-1.00;67.12;94778.31;5057407;28;19999;-66
2023/11/25 01:02:00;;;;;;;;;;;;;;;-1.04;68.30;94784.75;5061752;28;20353;-66
2023/11/25 01:04:26;;;;;;;;;;;;;;;-1.09;72.36;94786.88;5067471;28;19994;-66
2023/11/25 01:06:51;;;;;;;;;;;;;;;-0.88;72.21;94788.75;5063964;28;20416;-66
2023/11/25 01:09:17;;;;;;;;;;;;;;;-0.63;63.20;94808.44;5060850;28;19921;-66
2023/11/25 01:11:43;;;;;;;;;;;;;;;-1.29;69.87;94802.41;5066075;28;19967;-66
2023/11/25 01:14:08;;;;;;;;;;;;;;;-1.01;69.19;94797.56;5060611;28;20664;-66
2023/11/25 01:16:34;;;;;;;;;;;;;;;-1.03;74.10;94802.06;5065500;28;19920;-66
2023/11/25 01:18:59;;;;;;;;;;;;;;;-0.87;73.42;94799.06;5063840;28;20007;-66
2023/11/25 01:21:24;;;;;;;;;;;;;;;-0.96;70.69;94803.25;5072373;28;20513;-66
2023/11/25 01:23:49;;;;;;;;;;;;;;;-0.82;72.74;94811.75;5078386;28;19928;-66
2023/11/25 01:26:15;;;;;;;;;;;;;;;-0.90;69.24;94811.53;5064608;28;20019;-66
2023/11/25 01:28:42;;;;;;;;;;;;;;;-1.18;73.37;94811.16;5067208;28;19920;-66
2023/11/25 01:31:07;;;;;;;;;;;;;;;-0.98;70.30;94817.38;5065533;28;19936;-68
2023/11/25 01:33:32;;;;;;;;;;;;;;;-0.82;73.54;94827.41;5070737;28;19920;-66
2023/11/25 01:35:58;;;;;;;;;;;;;;;-0.90;66.74;94827.22;5065771;28;19924;-67
2023/11/25 01:38:23;;;;;;;;;;;;;;;-0.74;66.47;94825.00;5077595;28;19941;-67
2023/11/25 01:40:49;;;;;;;;;;;;;;;-0.76;69.83;94831.31;5074401;28;19982;-66
2023/11/25 01:43:14;;;;;;;;;;;;;;;-1.13;73.72;94829.91;5062668;28;19924;-68
2023/11/25 01:45:40;;;;;;;;;;;;;;;-0.99;71.45;94832.22;5074488;28;20565;-66
2023/11/25 01:48:05;;;;;;;;;;;;;;;-1.39;72.73;94832.84;5073812;28;19931;-67
2023/11/25 01:50:36;;;;;;;;;;;;;;;-1.13;71.36;94845.56;5066783;28;19930;-67
2023/11/25 01:53:02;;;;;;;;;;;;;;;-1.06;72.48;94838.91;5072962;28;20579;-66
2023/11/25 01:55:28;;;;;;;;;;;;;;;-1.20;72.32;94842.63;5073647;28;19970;-67
2023/11/25 01:57:54;;;;;;;;;;;;;;;-1.04;70.86;94838.78;5070584;28;19924;-66
2023/11/25 02:00:20;;;;;;;;;;;;;;;-0.93;75.40;94843.16;5069328;28;19920;-67
2023/11/25 02:02:45;;;;;;;;;;;;;;;-0.97;67.64;94840.81;5071775;28;19924;-67
2023/11/25 02:05:10;;;;;;;;;;;;;;;-1.37;70.65;94836.16;5066230;28;19928;-67
2023/11/25 02:07:36;;;;;;;;;;;;;;;-1.31;70.06;94843.50;5060503;28;19968;-66
2023/11/25 02:10:01;;;;;;;;;;;;;;;-1.07;70.80;94839.88;5066443;28;19928;-67
2023/11/25 02:12:26;;;;;;;;;;;;;;;-0.87;64.14;94848.72;5064727;28;19977;-67
2023/11/25 02:14:53;;;;;;;;;;;;;;;-1.16;68.97;94832.78;5062117;28;20001;-67
2023/11/25 02:17:21;;;;;;;;;;;;;;;-1.22;66.19;94824.47;5063265;28;20600;-66
2023/11/25 02:19:48;;;;;;;;;;;;;;;-1.28;68.47;94830.19;5065039;28;20035;-68
2023/11/25 02:22:13;;;;;;;;;;;;;;;-1.41;70.04;94827.75;5063755;28;20598;-67
2023/11/25 02:24:38;;;;;;;;;;;;;;;-1.43;70.58;94836.66;5059319;28;19928;-67
2023/11/25 02:27:04;;;;;;;;;;;;;;;-1.28;71.04;94838.03;5067206;28;20388;-67
2023/11/25 02:29:31;;;;;;;;;;;;;;;-1.50;69.85;94844.13;5064679;28;19947;-67
2023/11/25 02:31:58;;;;;;;;;;;;;;;-1.49;72.16;94858.88;5066296;28;19932;-67
2023/11/25 02:34:24;;;;;;;;;;;;;;;-1.40;67.61;94858.13;5064217;28;19959;-67
2023/11/25 02:36:50;;;;;;;;;;;;;;;-1.46;71.52;94859.44;5065323;28;20365;-66
2023/11/25 02:39:17;;;;;;;;;;;;;;;-1.64;71.95;94856.50;5064072;28;19930;-67
2023/11/25 02:41:45;;;;;;;;;;;;;;;-1.46;66.54;94853.38;5069371;28;19924;-67
2023/11/25 02:44:11;;;;;;;;;;;;;;;-1.79;70.80;94855.94;5066983;28;19923;-67
2023/11/25 02:46:38;;;;;;;;;;;;;;;-1.57;69.19;94845.59;5063074;28;19925;-67
2023/11/25 02:49:06;;;;;;;;;;;;;;;-1.40;65.15;94850.28;5063196;28;19931;-67
2023/11/25 02:51:31;;;;;;;;;;;;;;;-1.51;69.86;94861.59;5065048;28;19924;-67
2023/11/25 02:53:56;;;;;;;;;;;;;;;-1.37;75.11;94860.50;5072622;28;19920;-67
2023/11/25 02:56:22;;;;;;;;;;;;;;;-1.24;72.64;94864.72;5063113;28;20369;-67
2023/11/25 02:58:48;;;;;;;;;;;;;;;-1.35;71.06;94860.38;5063482;28;19920;-67
2023/11/25 03:01:13;;;;;;;;;;;;;;;-1.29;70.11;94856.44;5065697;28;19928;-66
2023/11/25 03:03:43;;;;;;;;;;;;;;;-1.35;71.68;94860.38;5067815;28;20435;-67
2023/11/25 03:06:09;;;;;;;;;;;;;;;-1.38;73.13;94866.69;5059224;28;19927;-67
2023/11/25 03:08:34;;;;;;;;;;;;;;;-1.31;74.51;94860.94;5060393;28;19924;-67
2023/11/25 03:11:00;;;;;;;;;;;;;;;-1.34;71.78;94868.09;5059689;28;19973;-66
2023/11/25 03:13:26;;;;;;;;;;;;;;;-1.22;66.08;94863.66;5065646;28;19963;-67
2023/11/25 03:15:53;;;;;;;;;;;;;;;-0.91;64.23;94859.56;5058481;28;19920;-67
2023/11/25 03:18:20;;;;;;;;;;;;;;;-1.37;73.26;94870.94;5068284;28;20671;-67
2023/11/25 03:20:45;;;;;;;;;;;;;;;-1.25;70.61;94866.50;5059158;28;19999;-67
2023/11/25 03:23:10;;;;;;;;;;;;;;;-1.29;71.64;94865.09;5062762;28;20630;-67
2023/11/25 03:25:37;;;;;;;;;;;;;;;-1.19;68.19;94872.22;5061528;28;19924;-66
2023/11/25 03:28:04;;;;;;;;;;;;;;;-1.13;65.83;94879.53;5062954;28;19925;-67
2023/11/25 03:30:30;;;;;;;;;;;;;;;-1.19;68.62;94869.59;5057951;28;20034;-67
2023/11/25 03:32:55;;;;;;;;;;;;;;;-1.23;67.99;94876.84;5061108;28;20613;-67
2023/11/25 03:35:21;;;;;;;;;;;;;;;-0.75;63.49;94870.41;5060327;28;20416;-67
2023/11/25 03:37:46;;;;;;;;;;;;;;;-0.92;65.23;94878.81;5060134;28;19928;-67
2023/11/25 03:40:15;;;;;;;;;;;;;;;-1.26;66.62;94879.69;5058245;28;20615;-67
2023/11/25 03:42:41;;;;;;;;;;;;;;;-0.88;64.34;94870.56;5059127;28;20351;-67
2023/11/25 03:45:09;;;;;;;;;;;;;;;-0.93;63.06;94874.50;5059374;28;19962;-66
2023/11/25 03:47:34;;;;;;;;;;;;;;;-1.02;64.32;94879.50;5063016;28;19924;-67
2023/11/25 03:49:59;;;;;;;;;;;;;;;-0.88;62.69;94867.16;5063501;28;19927;-67
2023/11/25 03:52:24;;;;;;;;;;;;;;;-0.93;63.11;94869.28;5067682;28;19924;-67
2023/11/25 03:54:50;;;;;;;;;;;;;;;-0.90;63.35;94866.44;5059935;28;20385;-68
2023/11/25 03:57:15;;;;;;;;;;;;;;;-0.66;62.95;94865.38;5071422;28;19928;-66
2023/11/25 03:59:40;;;;;;;;;;;;;;;-1.02;62.52;94868.25;5060213;28;19921;-66
2023/11/25 04:02:06;;;;;;;;;;;;;;;-0.83;62.39;94859.75;5066080;28;20001;-66
2023/11/25 04:04:32;;;;;;;;;;;;;;;-0.93;63.42;94870.13;5070972;28;19980;-68
2023/11/25 04:06:57;;;;;;;;;;;;;;;-1.17;68.31;94872.91;5061179;28;19951;-67
2023/11/25 04:09:23;;;;;;;;;;;;;;;-0.73;61.81;94865.91;5060484;28;19920;-67
2023/11/25 04:11:48;;;;;;;;;;;;;;;-1.08;63.29;94875.59;5060500;28;19931;-68
2023/11/25 04:14:13;;;;;;;;;;;;;;;-0.85;63.14;94857.25;5060936;28;19928;-67
2023/11/25 04:16:38;;;;;;;;;;;;;;;-0.58;60.63;94863.78;5060044;28;19931;-67
2023/11/25 04:19:04;;;;;;;;;;;;;;;-1.39;67.92;94867.59;5057725;28;19920;-66
2023/11/25 04:21:30;;;;;;;;;;;;;;;-1.17;67.07;94868.53;5057915;28;19923;-66
2023/11/25 04:23:55;;;;;;;;;;;;;;;-1.11;63.17;94867.19;5057589;28;19920;-66
2023/11/25 04:26:21;;;;;;;;;;;;;;;-1.40;65.87;94872.94;5057611;28;19920;-66
2023/11/25 04:28:46;;;;;;;;;;;;;;;-1.74;67.42;94871.22;5058231;28;19921;-67
2023/11/25 04:31:11;;;;;;;;;;;;;;;-1.60;68.20;94867.53;5057791;28;19935;-66
2023/11/25 04:33:37;;;;;;;;;;;;;;;-1.64;69.12;94871.31;5062111;28;19979;-67
2023/11/25 04:36:02;;;;;;;;;;;;;;;-1.13;63.83;94863.88;5057660;28;19921;-67
2023/11/25 04:38:27;;;;;;;;;;;;;;;-1.27;65.44;94868.44;5062213;28;20651;-67
2023/11/25 04:40:53;;;;;;;;;;;;;;;-1.19;63.51;94869.59;5057825;28;19921;-67
2023/11/25 04:43:19;;;;;;;;;;;;;;;-1.39;64.11;94869.41;5059411;28;20352;-67
2023/11/25 04:45:44;;;;;;;;;;;;;;;-1.59;66.21;94866.59;5061787;28;19920;-67
2023/11/25 04:48:09;;;;;;;;;;;;;;;-1.46;66.44;94867.28;5065046;28;20677;-66
2023/11/25 04:50:34;;;;;;;;;;;;;;;-1.11;61.72;94875.03;5063753;28;19929;-66
2023/11/25 04:53:00;;;;;;;;;;;;;;;-1.67;64.99;94868.97;5067229;28;19967;-67
2023/11/25 04:55:27;;;;;;;;;;;;;;;-1.43;63.39;94860.16;5067303;28;19967;-67
2023/11/25 04:57:53;;;;;;;;;;;;;;;-1.83;67.81;94867.56;5071201;28;19931;-66
2023/11/25 05:00:18;;;;;;;;;;;;;;;-1.54;64.42;94872.28;5064684;28;19924;-67
2023/11/25 05:02:43;;;;;;;;;;;;;;;-1.67;66.84;94855.94;5072504;28;19951;-67
2023/11/25 05:05:09;;;;;;;;;;;;;;;-1.72;67.34;94858.88;5062658;28;19931;-67
2023/11/25 05:07:34;;;;;;;;;;;;;;;-1.96;72.83;94862.47;5062778;28;19947;-67
2023/11/25 05:10:00;;;;;;;;;;;;;;;-1.74;68.19;94863.38;5064249;28;19928;-66
2023/11/25 05:12:25;;;;;;;;;;;;;;;-1.77;67.59;94858.41;5069053;28;19999;-66
2023/11/25 05:14:50;;;;;;;;;;;;;;;-1.55;64.05;94857.56;5070897;28;19967;-67
2023/11/25 05:17:17;;;;;;;;;;;;;;;-1.49;65.99;94854.44;5063613;28;19920;-69
2023/11/25 05:19:42;;;;;;;;;;;;;;;-1.61;63.99;94853.66;5069032;28;20468;-66
2023/11/25 05:22:07;;;;;;;;;;;;;;;-2.06;69.96;94848.44;5070423;28;20003;-67
2023/11/25 05:24:33;;;;;;;;;;;;;;;-1.88;69.76;94843.59;5062838;28;19927;-67
2023/11/25 05:26:58;;;;;;;;;;;;;;;-1.85;70.12;94841.59;5062050;28;20665;-67
2023/11/25 05:29:23;;;;;;;;;;;;;;;-1.83;71.80;94840.63;5062722;28;19931;-67
2023/11/25 05:31:49;;;;;;;;;;;;;;;-1.43;66.43;94839.28;5060096;28;20558;-67
2023/11/25 05:34:14;;;;;;;;;;;;;;;-1.40;68.11;94841.59;5069017;28;20516;-66
2023/11/25 05:36:39;;;;;;;;;;;;;;;-1.68;71.05;94841.19;5070103;28;19920;-67
2023/11/25 05:39:06;;;;;;;;;;;;;;;-1.08;65.03;94836.41;5062696;28;19931;-67
2023/11/25 05:41:35;;;;;;;;;;;;;;;-1.47;68.22;94836.91;5061001;28;19917;-67
2023/11/25 05:44:02;;;;;;;;;;;;;;;-1.50;68.25;94824.06;5070479;28;19920;-67
2023/11/25 05:46:28;;;;;;;;;;;;;;;-1.55;65.98;94841.06;5068029;28;19926;-66
2023/11/25 05:48:54;;;;;;;;;;;;;;;-1.53;67.60;94831.34;5063418;28;19923;-67
2023/11/25 05:51:19;;;;;;;;;;;;;;;-1.54;65.33;94840.94;5064825;28;20437;-67
2023/11/25 05:53:45;;;;;;;;;;;;;;;-1.36;63.93;94837.81;5074804;28;20019;-67
2023/11/25 05:56:10;;;;;;;;;;;;;;;-1.31;62.74;94842.66;5072278;28;19920;-67
2023/11/25 05:58:35;;;;;;;;;;;;;;;-1.71;66.69;94831.81;5067789;28;19929;-67
2023/11/25 06:01:02;;;;;;;;;;;;;;;-1.70;65.72;94850.94;5064397;28;19916;-67
2023/11/25 06:03:27;;;;;;;;;;;;;;;-1.53;68.02;94837.38;5068088;28;20047;-67
2023/11/25 06:05:53;;;;;;;;;;;;;;;-1.47;69.51;94847.34;5060012;28;20003;-67
2023/11/25 06:08:18;;;;;;;;;;;;;;;-1.13;63.71;94850.81;5065695;28;19964;-66
2023/11/25 06:10:45;;;;;;;;;;;;;;;-1.35;65.58;94842.91;5060847;28;19932;-67
2023/11/25 06:13:10;;;;;;;;;;;;;;;-0.98;63.94;94840.91;5069545;28;19997;-67
2023/11/25 06:15:35;;;;;;;;;;;;;;;-1.15;68.32;94835.25;5065330;28;19928;-67
2023/11/25 06:18:01;;;;;;;;;;;;;;;-1.11;65.19;94835.84;5065740;28;19965;-67
2023/11/25 06:20:26;;;;;;;;;;;;;;;-0.96;64.25;94833.78;5068293;28;20621;-66
2023/11/25 06:22:54;;;;;;;;;;;;;;;-0.68;63.11;94830.69;5070324;28;19925;-66
2023/11/25 06:25:20;;;;;;;;;;;;;;;-0.79;65.03;94834.19;5071556;28;19929;-66
2023/11/25 06:27:45;;;;;;;;;;;;;;;-0.97;63.67;94843.44;5060098;28;19920;-67
2023/11/25 06:30:10;;;;;;;;;;;;;;;-0.87;63.07;94837.44;5059554;28;19924;-66
2023/11/25 06:32:37;;;;;;;;;;;;;;;-1.42;67.16;94846.97;5064444;28;20577;-66
2023/11/25 06:35:03;;;;;;;;;;;;;;;-1.38;67.49;94843.19;5060517;28;19928;-67
2023/11/25 06:37:28;;;;;;;;;;;;;;;-0.62;61.75;94845.84;5066814;28;19924;-66
2023/11/25 06:39:54;;;;;;;;;;;;;;;-0.71;60.66;94840.44;5072378;28;20066;-66
2023/11/25 06:42:22;;;;;;;;;;;;;;;-1.34;66.46;94847.19;5059122;28;20018;-66
2023/11/25 06:44:47;;;;;;;;;;;;;;;-1.22;65.59;94863.66;5067888;28;19928;-66
2023/11/25 06:47:13;;;;;;;;;;;;;;;-1.31;66.44;94859.19;5063489;28;20463;-66
2023/11/25 06:49:38;;;;;;;;;;;;;;;-1.43;69.35;94860.16;5064632;28;19924;-67
2023/11/25 06:52:04;;;;;;;;;;;;;;;-1.10;64.36;94864.47;5067440;28;19967;-66
2023/11/25 06:54:29;;;;;;;;;;;;;;;-1.18;69.02;94855.56;5063178;28;20323;-66
2023/11/25 06:56:54;;;;;;;;;;;;;;;-0.80;63.18;94848.22;5062501;28;19920;-67
2023/11/25 06:59:19;;;;;;;;;;;;;;;-0.88;63.47;94859.31;5072229;28;20099;-67
2023/11/25 07:01:45;;;;;;;;;;;;;;;-0.79;63.28;94850.69;5063046;28;19923;-66
2023/11/25 07:04:11;;;;;;;;;;;;;;;-1.26;69.98;94854.41;5063951;28;20424;-67
2023/11/25 07:06:36;;;;;;;;;;;;;;;-1.02;67.14;94855.19;5060457;28;19963;-66
2023/11/25 07:09:01;;;;;;;;;;;;;;;-1.01;64.11;94856.84;5062599;28;19921;-66
2023/11/25 07:11:27;;;;;;;;;;;;;;;-0.65;62.58;94846.94;5058200;28;20583;-66
2023/11/25 07:13:54;;;;;;;;;;;;;;;-0.97;64.68;94842.56;5063005;28;20023;-66
2023/11/25 07:16:19;;;;;;;;;;;;;;;-0.77;64.50;94848.81;5058161;28;20183;-66
2023/11/25 07:18:47;;;;;;;;;;;;;;;-0.95;64.60;94845.88;5064284;28;20028;-66
2023/11/25 07:21:13;;;;;;;;;;;;;;;-0.32;60.73;94847.72;5064101;28;20011;-66
2023/11/25 07:23:42;;;;;;;;;;;;;;;-0.29;60.75;94844.00;5067120;28;20003;-67
2023/11/25 07:26:10;;;;;;;;;;;;;;;-0.46;61.69;94843.66;5058493;28;19932;-66
2023/11/25 07:28:35;;;;;;;;;;;;;;;-0.54;61.00;94853.09;5065692;28;19924;-66
2023/11/25 07:31:00;;;;;;;;;;;;;;;-0.77;61.85;94854.03;5067198;28;20034;-66
2023/11/25 07:33:26;;;;;;;;;;;;;;;-0.85;62.90;94841.56;5062289;28;19924;-67
2023/11/25 07:35:53;;;;;;;;;;;;;;;-1.12;66.87;94855.09;5058231;28;20334;-67
2023/11/25 07:38:18;;;;;;;;;;;;;;;-1.03;65.65;94843.03;5059483;28;19925;-67
2023/11/25 07:40:43;;;;;;;;;;;;;;;-0.97;66.54;94840.81;5058145;28;19919;-66
2023/11/25 07:43:09;;;;;;;;;;;;;;;-0.79;63.30;94871.63;5060099;28;19959;-66
2023/11/25 07:45:34;;;;;;;;;;;;;;;-1.06;64.76;94854.59;5063595;28;19920;-66
2023/11/25 07:47:59;;;;;;;;;;;;;;;-0.90;62.63;94858.59;5059227;28;19923;-66
2023/11/25 07:50:24;;;;;;;;;;;;;;;-0.99;62.42;94847.91;5059381;28;19920;-66
2023/11/25 07:52:50;;;;;;;;;;;;;;;-0.82;62.63;94856.19;5067623;28;20480;-65
2023/11/25 07:55:16;;;;;;;;;;;;;;;-0.90;63.55;94845.53;5057543;28;19978;-66
2023/11/25 07:57:42;;;;;;;;;;;;;;;-1.03;63.90;94856.09;5059329;28;20001;-66
2023/11/25 08:00:07;;;;;;;;;;;;;;;-0.67;62.05;94858.50;5060462;28;19932;-65
2023/11/25 08:02:33;;;;;;;;;;;;;;;-1.05;63.24;94856.22;5069674;28;19930;-66
2023/11/25 08:04:58;;;;;;;;;;;;;;;-0.90;65.07;94850.75;5069441;28;19924;-66
2023/11/25 08:07:23;;;;;;;;;;;;;;;-0.47;62.50;94849.00;5057619;28;19933;-65
2023/11/25 08:09:49;;;;;;;;;;;;;;;-0.15;60.75;94842.00;5069981;28;19992;-65
2023/11/25 08:12:14;;;;;;;;;;;;;;;-0.04;60.89;94831.44;5058041;28;19997;-66
2023/11/25 08:14:39;;;;;;;;;;;;;;;-0.02;60.83;94840.03;5060734;28;19936;-65
2023/11/25 08:17:04;;;;;;;;;;;;;;;0.25;59.17;94841.22;5061320;28;19927;-65
2023/11/25 08:19:30;;;;;;;;;;;;;;;0.39;58.23;94857.53;5072563;28;20284;-65
2023/11/25 08:21:55;;;;;;;;;;;;;;;0.37;58.35;94841.94;5074976;28;20022;-65
2023/11/25 08:24:20;;;;;;;;;;;;;;;-0.06;59.72;94855.13;5077227;28;20545;-65
2023/11/25 08:26:46;;;;;;;;;;;;;;;0.25;58.27;94850.88;5076379;28;19931;-65
2023/11/25 08:29:15;;;;;;;;;;;;;;;-0.46;64.24;94848.03;5076384;28;19919;-64
2023/11/25 08:31:40;;;;;;;;;;;;;;;-0.12;61.21;94839.97;5075237;28;20316;-64
2023/11/25 08:34:09;;;;;;;;;;;;;;;-0.21;61.19;94833.72;5075865;28;19928;-63
2023/11/25 08:36:36;;;;;;;;;;;;;;;0.26;58.88;94835.03;5077087;28;19966;-64
2023/11/25 08:39:01;;;;;;;;;;;;;;;0.33;60.28;94828.28;5073979;28;19923;-63
2023/11/25 08:41:27;;;;;;;;;;;;;;;0.19;58.28;94842.59;5074094;28;19920;-63
2023/11/25 08:43:52;;;;;;;;;;;;;;;-0.18;61.92;94837.88;5070605;28;20385;-63
2023/11/25 08:46:19;;;;;;;;;;;;;;;0.14;59.78;94823.00;5072540;28;19932;-63
2023/11/25 08:48:45;;;;;;;;;;;;;;;0.11;59.00;94825.88;5073568;28;19997;-63
2023/11/25 08:51:11;;;;;;;;;;;;;;;0.23;57.95;94821.34;5072391;28;20711;-63
2023/11/25 08:53:37;;;;;;;;;;;;;;;0.11;59.41;94821.47;5075517;28;19924;-63
2023/11/25 08:56:03;;;;;;;;;;;;;;;-0.05;59.40;94822.78;5072259;28;19939;-63
2023/11/25 08:58:29;;;;;;;;;;;;;;;-0.28;59.27;94827.34;5074724;28;20145;-63
2023/11/25 09:00:55;;;;;;;;;;;;;;;-0.53;60.65;94829.44;5074152;28;19974;-63
2023/11/25 09:03:20;;;;;;;;;;;;;;;-0.29;59.43;94820.47;5071100;28;20364;-63
2023/11/25 09:05:46;;;;;;;;;;;;;;;-0.65;61.95;94822.59;5067106;28;20019;-63
2023/11/25 09:08:11;;;;;;;;;;;;;;;-0.54;61.21;94816.47;5074434;28;20208;-63
2023/11/25 09:10:37;;;;;;;;;;;;;;;-0.69;62.66;94808.94;5071593;28;20341;-63
2023/11/25 09:13:02;;;;;;;;;;;;;;;-0.58;62.56;94806.25;5075301;28;19916;-63
2023/11/25 09:15:28;;;;;;;;;;;;;;;-0.06;60.01;94791.53;5075082;28;20447;-63
2023/11/25 09:17:53;;;;;;;;;;;;;;;-0.38;60.72;94800.31;5072334;28;19924;-63
2023/11/25 09:20:20;;;;;;;;;;;;;;;-0.37;60.75;94801.97;5071316;28;20534;-63
2023/11/25 09:22:45;;;;;;;;;;;;;;;-0.73;64.67;94791.84;5071259;28;19965;-63
2023/11/25 09:25:12;;;;;;;;;;;;;;;-0.52;62.03;94793.63;5074250;28;19928;-63
2023/11/25 09:27:38;;;;;;;;;;;;;;;-0.88;63.25;94799.19;5070935;28;20382;-63
2023/11/25 09:30:04;;;;;;;;;;;;;;;-0.54;61.90;94792.94;5075277;28;19923;-64
2023/11/25 09:32:29;;;;;;;;;;;;;;;-0.08;60.06;94798.66;5075185;28;19939;-63
2023/11/25 09:34:55;;;;;;;;;;;;;;;0.12;59.56;94785.63;5073866;28;19928;-63
2023/11/25 09:37:20;;;;;;;;;;;;;;;-0.40;60.68;94791.78;5074545;28;19974;-63
2023/11/25 09:39:46;;;;;;;;;;;;;;;-0.38;61.04;94793.28;5061401;28;19964;-64
2023/11/25 09:42:11;;;;;;;;;;;;;;;-0.85;61.91;94798.91;5060576;28;19920;-64
2023/11/25 09:44:37;;;;;;;;;;;;;;;-0.92;62.45;94790.75;5062093;28;19964;-65
2023/11/25 09:47:03;;;;;;;;;;;;;;;-1.62;65.93;94804.97;5062756;28;20003;-64
2023/11/25 09:49:28;;;;;;;;;;;;;;;-1.49;64.91;94794.41;5061996;28;19925;-66
2023/11/25 09:51:54;;;;;;;;;;;;;;;-1.66;67.31;94789.72;5064039;28;20007;-65
2023/11/25 09:54:21;;;;;;;;;;;;;;;-1.48;64.88;94800.47;5069880;28;19932;-64
2023/11/25 09:56:47;;;;;;;;;;;;;;;-1.18;66.02;94793.72;5064029;28;19916;-65
2023/11/25 09:59:13;;;;;;;;;;;;;;;-3.53;73.58;94817.50;5063498;28;19924;-65
2023/11/25 10:01:38;;;;;;;;;;;;;;;-4.25;77.83;94806.84;5067685;28;19985;-65
2023/11/25 10:04:03;;;;;;;;;;;;;;;-4.96;82.18;94810.69;5066383;28;19924;-65
2023/11/25 10:06:29;;;;;;;;;;;;;;;-5.44;85.38;94803.41;5060264;28;19924;-65
2023/11/25 10:08:54;;;;;;;;;;;;;;;-5.56;86.15;94817.16;5066866;28;19916;-66
2023/11/25 10:11:22;;;;;;;;;;;;;;;-5.64;87.37;94813.28;5062483;28;20007;-64
2023/11/25 10:13:48;;;;;;;;;;;;;;;-5.62;88.15;94815.78;5065087;28;19952;-64
2023/11/25 10:16:13;;;;;;;;;;;;;;;-5.72;88.41;94802.56;5063069;28;20442;-64
2023/11/25 10:18:39;;;;;;;;;;;;;;;-5.36;88.63;94813.31;5059580;28;19921;-64
2023/11/25 10:21:06;;;;;;;;;;;;;;;-5.24;87.90;94809.06;5062030;28;20687;-65
2023/11/25 10:23:31;;;;;;;;;;;;;;;-5.28;86.45;94800.66;5059545;28;20617;-65
2023/11/25 10:25:59;;;;;;;;;;;;;;;-5.24;85.94;94796.09;5060187;28;19923;-65
2023/11/25 10:28:27;;;;;;;;;;;;;;;-5.40;89.29;94793.66;5072591;28;19916;-65
2023/11/25 10:30:55;;;;;;;;;;;;;;;-5.17;87.98;94801.72;5060663;28;20452;-64
2023/11/25 10:33:24;;;;;;;;;;;;;;;-5.09;86.49;94804.66;5060189;28;20414;-65
2023/11/25 10:35:51;;;;;;;;;;;;;;;-5.13;86.29;94798.81;5060064;28;20489;-65
2023/11/25 10:38:16;;;;;;;;;;;;;;;-5.16;85.53;94798.19;5061505;28;19916;-64
2023/11/25 10:40:41;;;;;;;;;;;;;;;-5.41;87.22;94805.81;5064528;28;19916;-64
2023/11/25 10:43:08;;;;;;;;;;;;;;;-5.37;87.12;94809.06;5058880;28;19927;-65
2023/11/25 10:45:33;;;;;;;;;;;;;;;-5.63;88.89;94816.72;5069923;28;19924;-64
2023/11/25 10:47:58;;;;;;;;;;;;;;;-5.41;88.18;94816.19;5059059;28;20334;-65
2023/11/25 10:50:25;;;;;;;;;;;;;;;-5.70;88.72;94803.31;5062126;28;19920;-64
2023/11/25 10:52:52;;;;;;;;;;;;;;;-5.47;88.83;94791.47;5065051;28;20365;-63
2023/11/25 10:55:17;;;;;;;;;;;;;;;-5.38;88.40;94790.03;5067938;28;19936;-63
2023/11/25 10:57:42;;;;;;;;;;;;;;;-5.31;87.99;94800.03;5061127;28;19920;-63
2023/11/25 11:00:10;;;;;;;;;;;;;;;-5.27;88.16;94809.28;5062422;28;19932;-63
2023/11/25 11:02:42;;;;;;;;;;;;;;;-4.71;85.99;94801.28;5063305;28;19916;-63
2023/11/25 11:05:08;;;;;;;;;;;;;;;-4.54;84.92;94793.25;5061880;28;19994;-63
2023/11/25 11:07:34;;;;;;;;;;;;;;;-4.71;85.12;94801.28;5058689;28;19959;-63
2023/11/25 11:10:00;;;;;;;;;;;;;;;-4.96;85.50;94791.69;5065958;28;20286;-63
2023/11/25 11:12:33;;;;;;;;;;;;;;;-5.27;88.35;94801.50;5058554;28;20015;-63
2023/11/25 11:15:05;;;;;;;;;;;;;;;-5.13;87.59;94787.63;5057347;28;20341;-63
2023/11/25 11:17:39;;;;;;;;;;;;;;;-5.19;88.37;94783.66;5069513;28;19920;-63
2023/11/25 11:20:05;;;;;;;;;;;;;;;-5.09;87.60;94784.69;5056974;28;19920;-63
2023/11/25 11:22:31;;;;;;;;;;;;;;;-5.20;89.23;94793.19;5066031;28;19947;-63
2023/11/25 11:24:59;;;;;;;;;;;;;;;-4.73;86.36;94781.50;5064173;28;20593;-63
2023/11/25 11:27:30;;;;;;;;;;;;;;;-4.69;85.46;94785.56;5064569;28;20440;-63
2023/11/25 11:29:57;;;;;;;;;;;;;;;-5.06;88.18;94781.09;5064086;28;19972;-62
2023/11/25 11:32:23;;;;;;;;;;;;;;;-5.14;88.71;94776.38;5069142;28;20595;-63
2023/11/25 11:34:49;;;;;;;;;;;;;;;-4.97;87.28;94777.03;5060365;28;19928;-63
2023/11/25 11:37:14;;;;;;;;;;;;;;;-4.59;86.19;94770.16;5070268;28;19912;-63
2023/11/25 11:39:42;;;;;;;;;;;;;;;-4.78;86.97;94763.66;5062444;28;19989;-63
2023/11/25 11:42:22;;;;;;;;;;;;;;;-4.58;86.05;94764.88;5058487;28;19916;-63
2023/11/25 11:45:11;;;;;;;;;;;;;;;-4.44;85.14;94760.50;5058565;28;20002;-63
2023/11/25 11:47:39;;;;;;;;;;;;;;;-4.56;85.69;94751.78;5061658;28;19920;-63
2023/11/25 11:50:08;;;;;;;;;;;;;;;-4.62;85.42;94753.03;5071680;28;20293;-63
2023/11/25 11:52:34;;;;;;;;;;;;;;;-4.46;84.88;94763.22;5064069;28;19920;-63
2023/11/25 11:55:19;;;;;;;;;;;;;;;-4.52;85.97;94755.81;5059329;28;20472;-63
2023/11/25 11:58:06;;;;;;;;;;;;;;;-4.72;86.78;94765.81;5058183;28;19916;-63
2023/11/25 12:00:35;;;;;;;;;;;;;;;-4.85;85.99;94760.63;5059532;28;19978;-63
2023/11/25 12:03:00;;;;;;;;;;;;;;;-4.83;86.08;94776.09;5061771;28;19916;-63
2023/11/25 12:05:25;;;;;;;;;;;;;;;-4.86;87.05;94758.97;5064192;28;19927;-64
2023/11/25 12:07:50;;;;;;;;;;;;;;;-4.56;85.73;94752.63;5057671;28;19920;-65
2023/11/25 12:10:16;;;;;;;;;;;;;;;-4.57;85.73;94753.56;5067939;28;19981;-65
2023/11/25 12:12:42;;;;;;;;;;;;;;;-4.82;86.95;94744.81;5057945;28;19986;-65
2023/11/25 12:15:08;;;;;;;;;;;;;;;-4.70;86.75;94765.72;5061399;28;20025;-64
2023/11/25 12:17:34;;;;;;;;;;;;;;;-5.01;87.66;94757.41;5057960;28;19925;-64
2023/11/25 12:19:59;;;;;;;;;;;;;;;-5.16;86.59;94762.69;5060762;28;19928;-64
2023/11/25 12:22:24;;;;;;;;;;;;;;;-4.60;85.82;94745.97;5042891;28;19917;-65
2023/11/25 12:24:49;;;;;;;;;;;;;;;-4.60;84.87;94737.34;5063642;28;19920;-64
2023/11/25 12:27:15;;;;;;;;;;;;;;;-4.07;84.14;94741.50;5062324;28;19920;-66
2023/11/25 12:29:40;;;;;;;;;;;;;;;-4.71;86.51;94725.09;5070571;28;19927;-65
2023/11/25 12:32:05;;;;;;;;;;;;;;;-4.66;86.64;94733.41;5059170;28;20516;-65
2023/11/25 12:34:30;;;;;;;;;;;;;;;-4.49;86.45;94718.44;5057313;28;19925;-65
2023/11/25 12:36:56;;;;;;;;;;;;;;;-4.72;86.72;94720.84;5058664;28;20373;-65
2023/11/25 12:39:22;;;;;;;;;;;;;;;-4.36;85.53;94724.41;5060235;28;19928;-65
2023/11/25 12:41:49;;;;;;;;;;;;;;;-4.32;85.24;94725.88;5058492;28;19924;-64